sensor_id;sensor_type;location;lat;lon;timestamp;pressure;altitude;pressure_sealevel;temperature;humidity
50250;BME280;36133;42.522;27.456;2023-03-14T00:00:53;101942.31;;;4.40;61.93
50250;BME280;36133;42.522;27.456;2023-03-14T00:03:19;101934.03;;;4.43;62.88
50250;BME280;36133;42.522;27.456;2023-03-14T00:05:44;101844.88;;;4.09;61.95
50250;BME280;36133;42.522;27.456;2023-03-14T00:08:10;101896.22;;;4.48;62.39
50250;BME280;36133;42.522;27.456;2023-03-14T00:10:37;101921.16;;;4.37;62.98
50250;BME280;36133;42.522;27.456;2023-03-14T00:13:02;101905.75;;;4.52;62.51
50250;BME280;36133;42.522;27.456;2023-03-14T00:15:28;101847.13;;;4.37;62.01
50250;BME280;36133;42.522;27.456;2023-03-14T00:17:53;101881.78;;;4.61;62.95
50250;BME280;36133;42.522;27.456;2023-03-14T00:20:19;101878.47;;;4.47;62.93
50250;BME280;36133;42.522;27.456;2023-03-14T00:22:44;101890.31;;;4.66;63.07
50250;BME280;36133;42.522;27.456;2023-03-14T00:25:11;101896.03;;;4.62;63.15
50250;BME280;36133;42.522;27.456;2023-03-14T00:27:36;101895.50;;;4.57;62.74
50250;BME280;36133;42.522;27.456;2023-03-14T00:30:04;101816.75;;;4.61;62.29
50250;BME280;36133;42.522;27.456;2023-03-14T00:32:30;101881.75;;;5.28;60.91
50250;BME280;36133;42.522;27.456;2023-03-14T00:34:56;101810.88;;;4.67;61.01
50250;BME280;36133;42.522;27.456;2023-03-14T00:37:21;101812.59;;;4.68;61.18
50250;BME280;36133;42.522;27.456;2023-03-14T00:39:47;101828.38;;;4.60;61.73
50250;BME280;36133;42.522;27.456;2023-03-14T00:42:13;101877.28;;;4.95;61.56
50250;BME280;36133;42.522;27.456;2023-03-14T00:44:39;101847.22;;;4.92;61.24
50250;BME280;36133;42.522;27.456;2023-03-14T00:47:04;101872.69;;;4.97;62.07
50250;BME280;36133;42.522;27.456;2023-03-14T00:49:30;101858.31;;;4.87;61.32
50250;BME280;36133;42.522;27.456;2023-03-14T00:51:55;101817.72;;;4.49;61.81
50250;BME280;36133;42.522;27.456;2023-03-14T00:54:21;101868.06;;;4.77;62.41
50250;BME280;36133;42.522;27.456;2023-03-14T00:56:46;101775.50;;;4.19;61.76
50250;BME280;36133;42.522;27.456;2023-03-14T00:59:12;101846.63;;;4.44;62.62
50250;BME280;36133;42.522;27.456;2023-03-14T01:01:39;101815.97;;;4.14;62.16
50250;BME280;36133;42.522;27.456;2023-03-14T01:04:05;101857.13;;;4.11;62.63
50250;BME280;36133;42.522;27.456;2023-03-14T01:06:31;101651.44;;;3.08;62.40
50250;BME280;36133;42.522;27.456;2023-03-14T01:08:57;101800.41;;;4.08;61.84
50250;BME280;36133;42.522;27.456;2023-03-14T01:11:25;101838.97;;;4.28;61.16
50250;BME280;36133;42.522;27.456;2023-03-14T01:13:51;101837.28;;;4.60;60.62
50250;BME280;36133;42.522;27.456;2023-03-14T01:16:18;101683.59;;;3.52;60.86
50250;BME280;36133;42.522;27.456;2023-03-14T01:18:45;101831.50;;;4.09;61.70
50250;BME280;36133;42.522;27.456;2023-03-14T01:21:25;101821.69;;;4.21;61.45
50250;BME280;36133;42.522;27.456;2023-03-14T01:23:52;101400.44;;;1.48;61.97
50250;BME280;36133;42.522;27.456;2023-03-14T01:26:21;101190.19;;;0.28;62.00
50250;BME280;36133;42.522;27.456;2023-03-14T01:28:48;101789.88;;;3.71;62.85
50250;BME280;36133;42.522;27.456;2023-03-14T01:31:14;101784.31;;;3.50;63.72
50250;BME280;36133;42.522;27.456;2023-03-14T01:33:40;101836.81;;;3.98;63.21
50250;BME280;36133;42.522;27.456;2023-03-14T01:36:07;101788.63;;;3.29;63.91
50250;BME280;36133;42.522;27.456;2023-03-14T01:38:34;101804.69;;;3.40;65.06
50250;BME280;36133;42.522;27.456;2023-03-14T01:41:00;101754.66;;;3.07;65.04
50250;BME280;36133;42.522;27.456;2023-03-14T01:43:26;101821.94;;;3.00;66.10
50250;BME280;36133;42.522;27.456;2023-03-14T01:46:57;101680.41;;;2.77;64.49
50250;BME280;36133;42.522;27.456;2023-03-14T01:54:28;101793.69;;;2.84;64.92
50250;BME280;36133;42.522;27.456;2023-03-14T01:57:10;101635.88;;;2.06;64.08
50250;BME280;36133;42.522;27.456;2023-03-14T01:59:37;101793.44;;;3.00;63.03
50250;BME280;36133;42.522;27.456;2023-03-14T02:02:06;101816.81;;;2.60;63.23
50250;BME280;36133;42.522;27.456;2023-03-14T02:04:34;101816.69;;;2.61;63.09
50250;BME280;36133;42.522;27.456;2023-03-14T02:07:16;101823.41;;;2.67;63.23
50250;BME280;36133;42.522;27.456;2023-03-14T02:09:43;101847.78;;;2.86;62.08
50250;BME280;36133;42.522;27.456;2023-03-14T02:12:09;101848.47;;;2.64;63.34
50250;BME280;36133;42.522;27.456;2023-03-14T02:14:37;101846.50;;;2.43;63.21
50250;BME280;36133;42.522;27.456;2023-03-14T02:17:05;101781.22;;;2.23;62.49
50250;BME280;36133;42.522;27.456;2023-03-14T02:19:46;101735.47;;;2.29;62.66
50250;BME280;36133;42.522;27.456;2023-03-14T02:22:16;101748.50;;;2.70;61.59
50250;BME280;36133;42.522;27.456;2023-03-14T02:27:47;101866.16;;;3.28;60.65
50250;BME280;36133;42.522;27.456;2023-03-14T02:30:18;101857.06;;;3.54;60.42
50250;BME280;36133;42.522;27.456;2023-03-14T02:32:47;101856.44;;;3.50;60.35
50250;BME280;36133;42.522;27.456;2023-03-14T02:35:18;101819.03;;;3.15;59.89
50250;BME280;36133;42.522;27.456;2023-03-14T02:40:37;101810.47;;;3.10;60.40
50250;BME280;36133;42.522;27.456;2023-03-14T02:43:02;101780.69;;;3.16;59.16
50250;BME280;36133;42.522;27.456;2023-03-14T02:48:09;101853.28;;;2.59;62.75
50250;BME280;36133;42.522;27.456;2023-03-14T02:50:36;101858.75;;;3.07;61.89
50250;BME280;36133;42.522;27.456;2023-03-14T02:53:02;101792.28;;;2.68;61.44
50250;BME280;36133;42.522;27.456;2023-03-14T02:55:27;101856.53;;;3.49;60.16
50250;BME280;36133;42.522;27.456;2023-03-14T02:57:53;101675.06;;;3.01;58.45
50250;BME280;36133;42.522;27.456;2023-03-14T03:00:19;101837.28;;;3.57;59.15
50250;BME280;36133;42.522;27.456;2023-03-14T03:02:45;101831.50;;;3.39;59.88
50250;BME280;36133;42.522;27.456;2023-03-14T03:05:11;101764.91;;;2.77;60.36
50250;BME280;36133;42.522;27.456;2023-03-14T03:07:37;101846.63;;;3.14;60.84
50250;BME280;36133;42.522;27.456;2023-03-14T03:10:03;101702.38;;;2.20;60.93
50250;BME280;36133;42.522;27.456;2023-03-14T03:12:29;101670.44;;;1.82;61.77
50250;BME280;36133;42.522;27.456;2023-03-14T03:14:54;101820.56;;;2.57;61.16
50250;BME280;36133;42.522;27.456;2023-03-14T03:17:20;101813.41;;;2.45;61.95
50250;BME280;36133;42.522;27.456;2023-03-14T03:19:45;101842.50;;;2.74;62.28
50250;BME280;36133;42.522;27.456;2023-03-14T03:22:11;101824.94;;;2.95;61.36
50250;BME280;36133;42.522;27.456;2023-03-14T03:24:36;101733.50;;;2.20;61.90
50250;BME280;36133;42.522;27.456;2023-03-14T03:27:02;101669.78;;;1.91;61.44
50250;BME280;36133;42.522;27.456;2023-03-14T03:29:27;101846.69;;;3.02;61.83
50250;BME280;36133;42.522;27.456;2023-03-14T03:31:53;101815.63;;;2.64;61.45
50250;BME280;36133;42.522;27.456;2023-03-14T03:34:19;101763.31;;;2.12;62.62
50250;BME280;36133;42.522;27.456;2023-03-14T03:36:44;101855.72;;;2.75;62.25
50250;BME280;36133;42.522;27.456;2023-03-14T03:39:09;101827.25;;;2.50;62.91
50250;BME280;36133;42.522;27.456;2023-03-14T03:41:35;101780.78;;;2.42;62.57
50250;BME280;36133;42.522;27.456;2023-03-14T03:44:00;101834.69;;;2.83;62.42
50250;BME280;36133;42.522;27.456;2023-03-14T03:46:26;101836.56;;;3.31;61.73
50250;BME280;36133;42.522;27.456;2023-03-14T03:48:56;101830.44;;;3.41;61.76
50250;BME280;36133;42.522;27.456;2023-03-14T03:51:22;101677.91;;;2.26;63.60
50250;BME280;36133;42.522;27.456;2023-03-14T03:53:47;101810.38;;;3.36;62.95
50250;BME280;36133;42.522;27.456;2023-03-14T03:56:13;101834.22;;;3.50;63.12
50250;BME280;36133;42.522;27.456;2023-03-14T03:58:38;101810.03;;;3.16;63.59
50250;BME280;36133;42.522;27.456;2023-03-14T04:01:05;101834.50;;;3.58;62.91
50250;BME280;36133;42.522;27.456;2023-03-14T04:03:32;101836.81;;;3.63;62.93
50250;BME280;36133;42.522;27.456;2023-03-14T04:06:10;101828.97;;;3.72;63.64
50250;BME280;36133;42.522;27.456;2023-03-14T04:08:36;101791.25;;;3.88;62.61
50250;BME280;36133;42.522;27.456;2023-03-14T04:11:02;101820.72;;;3.75;63.10
50250;BME280;36133;42.522;27.456;2023-03-14T04:13:28;101787.16;;;3.60;63.79
50250;BME280;36133;42.522;27.456;2023-03-14T04:15:54;101775.53;;;3.13;65.41
50250;BME280;36133;42.522;27.456;2023-03-14T04:18:20;101821.72;;;3.27;66.25
50250;BME280;36133;42.522;27.456;2023-03-14T04:20:51;101806.41;;;3.41;65.35
50250;BME280;36133;42.522;27.456;2023-03-14T04:23:17;101817.81;;;3.43;65.62
50250;BME280;36133;42.522;27.456;2023-03-14T04:25:42;101810.34;;;3.60;65.28
50250;BME280;36133;42.522;27.456;2023-03-14T04:28:08;101822.69;;;3.49;65.85
50250;BME280;36133;42.522;27.456;2023-03-14T04:30:33;101811.56;;;3.91;64.37
50250;BME280;36133;42.522;27.456;2023-03-14T04:32:59;101813.03;;;4.06;64.39
50250;BME280;36133;42.522;27.456;2023-03-14T04:35:24;101769.13;;;3.86;65.42
50250;BME280;36133;42.522;27.456;2023-03-14T04:37:50;101763.19;;;3.94;65.20
50250;BME280;36133;42.522;27.456;2023-03-14T04:40:17;101806.72;;;4.07;65.18
50250;BME280;36133;42.522;27.456;2023-03-14T04:42:43;101804.94;;;3.72;66.64
50250;BME280;36133;42.522;27.456;2023-03-14T04:45:09;101778.59;;;3.79;66.39
50250;BME280;36133;42.522;27.456;2023-03-14T04:47:35;101525.84;;;2.17;65.44
50250;BME280;36133;42.522;27.456;2023-03-14T04:50:00;101798.38;;;3.65;66.62
50250;BME280;36133;42.522;27.456;2023-03-14T04:52:26;101801.84;;;4.01;65.61
50250;BME280;36133;42.522;27.456;2023-03-14T04:54:52;101792.84;;;3.91;65.53
50250;BME280;36133;42.522;27.456;2023-03-14T04:57:18;101673.88;;;3.05;65.16
50250;BME280;36133;42.522;27.456;2023-03-14T04:59:43;101754.38;;;3.58;64.97
50250;BME280;36133;42.522;27.456;2023-03-14T05:02:09;101809.22;;;3.86;65.53
50250;BME280;36133;42.522;27.456;2023-03-14T05:04:34;101768.22;;;3.52;65.27
50250;BME280;36133;42.522;27.456;2023-03-14T05:07:00;101785.56;;;3.93;64.31
50250;BME280;36133;42.522;27.456;2023-03-14T05:09:26;101775.16;;;3.31;65.80
50250;BME280;36133;42.522;27.456;2023-03-14T05:11:51;101829.72;;;3.50;65.73
50250;BME280;36133;42.522;27.456;2023-03-14T05:14:17;101745.06;;;3.29;65.53
50250;BME280;36133;42.522;27.456;2023-03-14T05:16:43;101762.06;;;3.28;64.76
50250;BME280;36133;42.522;27.456;2023-03-14T05:19:09;101797.66;;;3.86;64.70
50250;BME280;36133;42.522;27.456;2023-03-14T05:21:36;101831.69;;;3.83;64.52
50250;BME280;36133;42.522;27.456;2023-03-14T05:24:01;101775.25;;;3.53;64.75
50250;BME280;36133;42.522;27.456;2023-03-14T05:26:27;101807.00;;;3.69;64.57
50250;BME280;36133;42.522;27.456;2023-03-14T05:28:53;101789.28;;;3.79;62.97
50250;BME280;36133;42.522;27.456;2023-03-14T05:31:18;101809.34;;;3.85;62.70
50250;BME280;36133;42.522;27.456;2023-03-14T05:33:44;101697.44;;;3.58;61.90
50250;BME280;36133;42.522;27.456;2023-03-14T05:36:09;101669.50;;;3.62;60.69
50250;BME280;36133;42.522;27.456;2023-03-14T05:38:35;101821.19;;;4.83;58.83
50250;BME280;36133;42.522;27.456;2023-03-14T05:41:00;101795.38;;;5.47;56.68
50250;BME280;36133;42.522;27.456;2023-03-14T05:43:26;101651.81;;;4.60;55.99
50250;BME280;36133;42.522;27.456;2023-03-14T05:45:51;101802.25;;;5.61;55.06
50250;BME280;36133;42.522;27.456;2023-03-14T05:48:17;101821.38;;;7.01;52.89
50250;BME280;36133;42.522;27.456;2023-03-14T05:50:43;101764.84;;;7.51;50.08
50250;BME280;36133;42.522;27.456;2023-03-14T05:53:09;101694.28;;;7.58;49.01
50250;BME280;36133;42.522;27.456;2023-03-14T05:55:35;101795.72;;;7.76;48.57
50250;BME280;36133;42.522;27.456;2023-03-14T05:58:00;101812.16;;;9.03;46.47
50250;BME280;36133;42.522;27.456;2023-03-14T06:00:26;101804.59;;;7.96;47.29
50250;BME280;36133;42.522;27.456;2023-03-14T06:02:52;101815.91;;;8.93;46.75
50250;BME280;36133;42.522;27.456;2023-03-14T06:05:17;101810.75;;;10.24;43.95
50250;BME280;36133;42.522;27.456;2023-03-14T06:07:43;101808.75;;;9.64;43.79
50250;BME280;36133;42.522;27.456;2023-03-14T06:10:09;101814.84;;;10.10;42.96
50250;BME280;36133;42.522;27.456;2023-03-14T06:12:34;101798.25;;;11.41;41.55
50250;BME280;36133;42.522;27.456;2023-03-14T06:15:00;101806.00;;;11.28;40.85
50250;BME280;36133;42.522;27.456;2023-03-14T06:17:25;101646.66;;;11.27;39.99
50250;BME280;36133;42.522;27.456;2023-03-14T06:19:51;101792.28;;;12.91;38.72
50250;BME280;36133;42.522;27.456;2023-03-14T06:22:17;101765.09;;;13.99;36.19
50250;BME280;36133;42.522;27.456;2023-03-14T06:24:42;101806.81;;;14.35;36.48
50250;BME280;36133;42.522;27.456;2023-03-14T06:27:08;101810.47;;;15.16;35.97
50250;BME280;36133;42.522;27.456;2023-03-14T06:29:33;101791.47;;;13.67;37.04
50250;BME280;36133;42.522;27.456;2023-03-14T06:31:59;101791.50;;;12.19;39.97
50250;BME280;36133;42.522;27.456;2023-03-14T06:34:25;101798.44;;;13.47;38.54
50250;BME280;36133;42.522;27.456;2023-03-14T06:36:50;101772.28;;;14.59;35.76
50250;BME280;36133;42.522;27.456;2023-03-14T06:39:16;101778.91;;;16.07;33.94
50250;BME280;36133;42.522;27.456;2023-03-14T06:41:41;101787.59;;;16.52;33.44
50250;BME280;36133;42.522;27.456;2023-03-14T06:44:07;101794.16;;;15.59;35.06
50250;BME280;36133;42.522;27.456;2023-03-14T06:46:32;101763.66;;;14.55;37.45
50250;BME280;36133;42.522;27.456;2023-03-14T06:48:58;101741.44;;;12.93;39.17
50250;BME280;36133;42.522;27.456;2023-03-14T06:51:24;101749.22;;;11.69;41.92
50250;BME280;36133;42.522;27.456;2023-03-14T06:53:49;101792.63;;;12.41;41.48
50250;BME280;36133;42.522;27.456;2023-03-14T06:56:15;101781.56;;;12.58;41.82
50250;BME280;36133;42.522;27.456;2023-03-14T06:58:40;101731.13;;;10.62;43.94
50250;BME280;36133;42.522;27.456;2023-03-14T07:01:23;101800.25;;;10.21;46.09
50250;BME280;36133;42.522;27.456;2023-03-14T07:03:50;101786.69;;;9.69;47.18
50250;BME280;36133;42.522;27.456;2023-03-14T07:06:15;101795.31;;;9.01;49.36
50250;BME280;36133;42.522;27.456;2023-03-14T07:08:41;101678.38;;;8.94;48.51
50250;BME280;36133;42.522;27.456;2023-03-14T07:11:07;101727.69;;;8.77;50.46
50250;BME280;36133;42.522;27.456;2023-03-14T07:13:33;101652.03;;;8.70;48.76
50250;BME280;36133;42.522;27.456;2023-03-14T07:15:58;101688.84;;;9.15;47.61
50250;BME280;36133;42.522;27.456;2023-03-14T07:18:24;101791.66;;;10.43;46.58
50250;BME280;36133;42.522;27.456;2023-03-14T07:20:49;101777.78;;;10.72;45.79
50250;BME280;36133;42.522;27.456;2023-03-14T07:23:15;101789.41;;;11.15;46.10
50250;BME280;36133;42.522;27.456;2023-03-14T07:25:41;101716.28;;;10.58;45.73
50250;BME280;36133;42.522;27.456;2023-03-14T07:28:06;101720.97;;;11.23;45.15
50250;BME280;36133;42.522;27.456;2023-03-14T07:30:32;101776.88;;;13.68;40.77
50250;BME280;36133;42.522;27.456;2023-03-14T07:32:58;101585.66;;;12.81;39.45
50250;BME280;36133;42.522;27.456;2023-03-14T07:35:23;101771.59;;;15.22;38.11
50250;BME280;36133;42.522;27.456;2023-03-14T07:37:49;101768.16;;;14.63;38.17
50250;BME280;36133;42.522;27.456;2023-03-14T07:40:15;101750.25;;;15.62;36.58
50250;BME280;36133;42.522;27.456;2023-03-14T07:42:42;101715.31;;;15.94;35.26
50250;BME280;36133;42.522;27.456;2023-03-14T07:45:08;101743.81;;;17.02;34.16
50250;BME280;36133;42.522;27.456;2023-03-14T07:47:35;101680.59;;;18.88;30.72
50250;BME280;36133;42.522;27.456;2023-03-14T07:50:01;101706.13;;;17.45;32.68
50250;BME280;36133;42.522;27.456;2023-03-14T07:52:26;101739.13;;;17.83;32.61
50250;BME280;36133;42.522;27.456;2023-03-14T07:54:52;101746.38;;;18.49;31.86
50250;BME280;36133;42.522;27.456;2023-03-14T07:57:17;101734.91;;;17.61;32.93
50250;BME280;36133;42.522;27.456;2023-03-14T07:59:43;101735.16;;;20.46;28.79
50250;BME280;36133;42.522;27.456;2023-03-14T08:02:12;101736.53;;;20.73;28.49
50250;BME280;36133;42.522;27.456;2023-03-14T08:04:39;101726.81;;;20.16;28.98
50250;BME280;36133;42.522;27.456;2023-03-14T08:07:08;101715.09;;;19.27;30.11
50250;BME280;36133;42.522;27.456;2023-03-14T08:09:33;101689.00;;;21.75;27.33
50250;BME280;36133;42.522;27.456;2023-03-14T08:11:59;101674.13;;;23.15;25.73
50250;BME280;36133;42.522;27.456;2023-03-14T08:14:24;101687.94;;;24.20;24.54
50250;BME280;36133;42.522;27.456;2023-03-14T08:16:50;101580.19;;;22.54;25.26
50250;BME280;36133;42.522;27.456;2023-03-14T08:19:17;101644.69;;;21.18;27.14
50250;BME280;36133;42.522;27.456;2023-03-14T08:21:42;101691.41;;;21.94;26.64
50250;BME280;36133;42.522;27.456;2023-03-14T08:24:08;101494.97;;;19.53;28.13
50250;BME280;36133;42.522;27.456;2023-03-14T08:26:34;101687.72;;;23.04;26.12
50250;BME280;36133;42.522;27.456;2023-03-14T08:28:59;101490.72;;;20.54;26.96
50250;BME280;36133;42.522;27.456;2023-03-14T08:31:25;101639.28;;;21.64;26.87
50250;BME280;36133;42.522;27.456;2023-03-14T08:33:51;101694.22;;;21.11;28.06
50250;BME280;36133;42.522;27.456;2023-03-14T08:36:18;101654.94;;;25.55;22.53
50250;BME280;36133;42.522;27.456;2023-03-14T08:38:44;101678.88;;;26.14;22.05
50250;BME280;36133;42.522;27.456;2023-03-14T08:41:10;101686.44;;;25.81;22.32
50250;BME280;36133;42.522;27.456;2023-03-14T08:43:35;101621.88;;;23.03;24.65
50250;BME280;36133;42.522;27.456;2023-03-14T08:46:01;101635.50;;;27.28;20.87
50250;BME280;36133;42.522;27.456;2023-03-14T08:48:27;101674.69;;;24.83;23.17
50250;BME280;36133;42.522;27.456;2023-03-14T08:50:55;101681.03;;;21.31;27.39
50250;BME280;36133;42.522;27.456;2023-03-14T08:53:21;101671.72;;;24.90;23.56
50250;BME280;36133;42.522;27.456;2023-03-14T08:55:52;101494.88;;;18.98;29.15
50250;BME280;36133;42.522;27.456;2023-03-14T08:58:17;101673.28;;;21.28;27.70
50250;BME280;36133;42.522;27.456;2023-03-14T09:00:43;101395.31;;;21.03;26.18
50250;BME280;36133;42.522;27.456;2023-03-14T09:03:09;101648.84;;;25.53;22.86
50250;BME280;36133;42.522;27.456;2023-03-14T09:05:34;101592.56;;;26.22;22.14
50250;BME280;36133;42.522;27.456;2023-03-14T09:08:00;101633.22;;;25.05;23.19
50250;BME280;36133;42.522;27.456;2023-03-14T09:10:26;101622.59;;;20.83;27.67
50250;BME280;36133;42.522;27.456;2023-03-14T09:12:52;101601.09;;;24.45;23.24
50250;BME280;36133;42.522;27.456;2023-03-14T09:15:17;101574.47;;;27.68;20.37
50250;BME280;36133;42.522;27.456;2023-03-14T09:17:43;101619.44;;;26.26;22.19
50250;BME280;36133;42.522;27.456;2023-03-14T09:20:10;101552.84;;;24.04;24.03
50250;BME280;36133;42.522;27.456;2023-03-14T09:22:39;101315.19;;;25.59;21.02
50250;BME280;36133;42.522;27.456;2023-03-14T09:25:05;101459.56;;;28.68;18.80
50250;BME280;36133;42.522;27.456;2023-03-14T09:27:33;101365.09;;;28.05;18.50
50250;BME280;36133;42.522;27.456;2023-03-14T09:29:59;101171.75;;;27.66;18.61
50250;BME280;36133;42.522;27.456;2023-03-14T09:32:25;101595.25;;;29.29;19.34
50250;BME280;36133;42.522;27.456;2023-03-14T09:34:51;101364.78;;;30.08;17.79
50250;BME280;36133;42.522;27.456;2023-03-14T09:37:17;101398.13;;;29.04;17.90
50250;BME280;36133;42.522;27.456;2023-03-14T09:39:43;101565.91;;;28.79;19.14
50250;BME280;36133;42.522;27.456;2023-03-14T09:42:14;101555.94;;;29.70;18.53
50250;BME280;36133;42.522;27.456;2023-03-14T09:45:02;101392.22;;;28.52;19.16
50250;BME280;36133;42.522;27.456;2023-03-14T09:47:31;101431.88;;;28.58;18.99
50250;BME280;36133;42.522;27.456;2023-03-14T09:49:59;101404.50;;;29.28;18.12
50250;BME280;36133;42.522;27.456;2023-03-14T09:52:30;101225.19;;;26.73;19.58
50250;BME280;36133;42.522;27.456;2023-03-14T09:55:11;101487.66;;;25.53;22.06
50250;BME280;36133;42.522;27.456;2023-03-14T09:57:41;101562.38;;;23.74;24.65
50250;BME280;36133;42.522;27.456;2023-03-14T10:00:19;101563.03;;;27.90;20.75
50250;BME280;36133;42.522;27.456;2023-03-14T10:02:57;101555.28;;;28.47;20.31
50250;BME280;36133;42.522;27.456;2023-03-14T10:05:25;101562.44;;;31.67;17.62
50250;BME280;36133;42.522;27.456;2023-03-14T10:07:53;101439.44;;;28.08;20.12
50250;BME280;36133;42.522;27.456;2023-03-14T10:10:20;101548.94;;;29.49;19.01
50250;BME280;36133;42.522;27.456;2023-03-14T10:12:49;101456.31;;;27.67;20.55
50250;BME280;36133;42.522;27.456;2023-03-14T10:15:30;101528.50;;;29.29;19.53
50250;BME280;36133;42.522;27.456;2023-03-14T10:17:59;101505.28;;;25.89;22.22
50250;BME280;36133;42.522;27.456;2023-03-14T10:23:18;101546.19;;;27.46;21.25
50250;BME280;36133;42.522;27.456;2023-03-14T10:28:31;101534.63;;;30.08;19.21
50250;BME280;36133;42.522;27.456;2023-03-14T10:30:58;101532.75;;;30.60;18.40
50250;BME280;36133;42.522;27.456;2023-03-14T10:33:26;101397.66;;;27.30;20.70
50250;BME280;36133;42.522;27.456;2023-03-14T10:35:54;101512.38;;;31.57;17.71
50250;BME280;36133;42.522;27.456;2023-03-14T10:38:23;101500.50;;;28.08;20.08
50250;BME280;36133;42.522;27.456;2023-03-14T10:40:51;101468.72;;;31.06;18.19
50250;BME280;36133;42.522;27.456;2023-03-14T10:43:22;101500.81;;;28.01;20.03
50250;BME280;36133;42.522;27.456;2023-03-14T10:46:01;101494.16;;;29.20;19.73
50250;BME280;36133;42.522;27.456;2023-03-14T10:48:38;101489.72;;;26.91;21.53
50250;BME280;36133;42.522;27.456;2023-03-14T10:51:27;101478.50;;;30.20;18.76
50250;BME280;36133;42.522;27.456;2023-03-14T10:54:15;101480.97;;;25.38;23.18
50250;BME280;36133;42.522;27.456;2023-03-14T10:56:44;101464.59;;;27.78;20.92
50250;BME280;36133;42.522;27.456;2023-03-14T10:59:14;101469.88;;;28.28;20.41
50250;BME280;36133;42.522;27.456;2023-03-14T11:01:58;101448.97;;;27.92;20.39
50250;BME280;36133;42.522;27.456;2023-03-14T11:20:59;101424.66;;;30.76;18.59
50250;BME280;36133;42.522;27.456;2023-03-14T11:29:38;101409.91;;;26.12;22.43
50250;BME280;36133;42.522;27.456;2023-03-14T11:32:19;101392.59;;;27.96;21.20
50250;BME280;36133;42.522;27.456;2023-03-14T11:34:51;101396.63;;;26.14;23.09
50250;BME280;36133;42.522;27.456;2023-03-14T11:37:29;101389.19;;;23.49;25.57
50250;BME280;36133;42.522;27.456;2023-03-14T11:40:18;101390.00;;;21.48;28.54
50250;BME280;36133;42.522;27.456;2023-03-14T11:42:50;101367.16;;;23.05;26.53
50250;BME280;36133;42.522;27.456;2023-03-14T11:45:22;101355.22;;;24.89;24.49
50250;BME280;36133;42.522;27.456;2023-03-14T11:48:11;101356.25;;;27.98;21.73
50250;BME280;36133;42.522;27.456;2023-03-14T11:50:42;101324.34;;;25.80;23.24
50250;BME280;36133;42.522;27.456;2023-03-14T11:53:14;101360.72;;;24.14;26.06
50250;BME280;36133;42.522;27.456;2023-03-14T11:55:42;101275.13;;;24.83;24.15
50250;BME280;36133;42.522;27.456;2023-03-14T11:58:16;101317.44;;;23.88;25.58
50250;BME280;36133;42.522;27.456;2023-03-14T12:00:47;101166.16;;;22.62;26.28
50250;BME280;36133;42.522;27.456;2023-03-14T12:06:44;101307.41;;;23.77;25.87
50250;BME280;36133;42.522;27.456;2023-03-14T12:09:12;101262.25;;;24.57;24.49
50250;BME280;36133;42.522;27.456;2023-03-14T12:11:54;101309.09;;;24.94;24.83
50250;BME280;36133;42.522;27.456;2023-03-14T12:14:25;101308.38;;;27.33;22.35
50250;BME280;36133;42.522;27.456;2023-03-14T12:16:57;101299.47;;;24.49;25.27
50250;BME280;36133;42.522;27.456;2023-03-14T12:24:19;101295.88;;;23.31;26.98
50250;BME280;36133;42.522;27.456;2023-03-14T12:26:54;101113.69;;;22.46;26.96
50250;BME280;36133;42.522;27.456;2023-03-14T12:29:21;101277.72;;;22.52;27.61
50250;BME280;36133;42.522;27.456;2023-03-14T12:32:07;101258.00;;;21.26;29.52
50250;BME280;36133;42.522;27.456;2023-03-14T12:34:34;101254.38;;;21.38;29.81
50250;BME280;36133;42.522;27.456;2023-03-14T12:42:38;101115.81;;;20.19;30.42
50250;BME280;36133;42.522;27.456;2023-03-14T12:45:23;101266.91;;;21.79;29.80
50250;BME280;36133;42.522;27.456;2023-03-14T12:48:03;101267.09;;;21.44;29.88
50250;BME280;36133;42.522;27.456;2023-03-14T12:59:46;100827.00;;;15.40;35.04
50250;BME280;36133;42.522;27.456;2023-03-14T13:02:22;101231.38;;;17.37;36.49
50250;BME280;36133;42.522;27.456;2023-03-14T13:05:13;101195.34;;;18.64;34.13
50250;BME280;36133;42.522;27.456;2023-03-14T13:10:29;101134.78;;;17.38;36.35
50250;BME280;36133;42.522;27.456;2023-03-14T13:13:01;101177.22;;;17.90;35.69
50250;BME280;36133;42.522;27.456;2023-03-14T13:15:38;101208.91;;;19.08;34.13
50250;BME280;36133;42.522;27.456;2023-03-14T13:18:34;101219.97;;;20.08;33.33
50250;BME280;36133;42.522;27.456;2023-03-14T13:21:19;101091.84;;;18.13;35.25
50250;BME280;36133;42.522;27.456;2023-03-14T13:24:06;101211.44;;;19.21;34.55
50250;BME280;36133;42.522;27.456;2023-03-14T13:26:35;101184.69;;;18.38;35.89
50250;BME280;36133;42.522;27.456;2023-03-14T13:31:46;100991.91;;;15.35;38.07
50250;BME280;36133;42.522;27.456;2023-03-14T13:34:13;101217.00;;;16.78;39.19
50250;BME280;36133;42.522;27.456;2023-03-14T13:36:39;101215.28;;;18.10;37.13
50250;BME280;36133;42.522;27.456;2023-03-14T13:39:10;101216.69;;;17.69;37.91
50250;BME280;36133;42.522;27.456;2023-03-14T13:41:59;101000.34;;;17.85;36.09
50250;BME280;36133;42.522;27.456;2023-03-14T13:44:29;100675.94;;;14.48;38.21
50250;BME280;36133;42.522;27.456;2023-03-14T13:47:01;101165.97;;;17.23;39.50
50250;BME280;36133;42.522;27.456;2023-03-14T13:49:45;100618.75;;;15.38;36.69
50250;BME280;36133;42.522;27.456;2023-03-14T13:52:30;101126.97;;;16.85;39.68
50250;BME280;36133;42.522;27.456;2023-03-14T13:54:57;101169.56;;;17.49;39.25
50250;BME280;36133;42.522;27.456;2023-03-14T13:57:24;100911.63;;;15.77;40.13
50250;BME280;36133;42.522;27.456;2023-03-14T14:00:07;101072.16;;;16.93;38.57
50250;BME280;36133;42.522;27.456;2023-03-14T14:02:36;101069.78;;;17.53;38.38